createdAt,value
2022-12-18T00:01:41.839Z,55.70
2022-12-18T00:04:16.236Z,52.65
2022-12-18T00:06:43.197Z,52.45
2022-12-18T00:09:11.556Z,48.80
2022-12-18T00:11:38.366Z,46.72
2022-12-18T00:14:05.158Z,73.90
2022-12-18T00:16:33.998Z,101.93
2022-12-18T00:19:01.322Z,89.00
2022-12-18T00:21:29.268Z,83.10
2022-12-18T00:23:56.073Z,77.10
2022-12-18T00:26:32.606Z,73.03
2022-12-18T00:29:07.838Z,69.22
2022-12-18T00:31:35.141Z,66.00
2022-12-18T00:34:02.809Z,60.38
2022-12-18T00:36:32.126Z,60.13
2022-12-18T00:39:00.039Z,57.78
2022-12-18T00:41:46.082Z,54.33
2022-12-18T00:44:15.116Z,52.78
2022-12-18T00:46:43.171Z,53.60
2022-12-18T00:49:10.719Z,50.28
2022-12-18T00:51:37.546Z,48.25
2022-12-18T00:54:05.152Z,46.42
2022-12-18T00:56:32.087Z,46.35
2022-12-18T00:58:58.925Z,45.78
2022-12-18T01:01:25.857Z,44.28
2022-12-18T01:03:52.723Z,40.45
2022-12-18T01:06:19.631Z,41.42
2022-12-18T01:08:46.446Z,42.13
2022-12-18T01:11:18.499Z,40.72
2022-12-18T01:13:45.572Z,40.45
2022-12-18T01:16:14.040Z,37.33
2022-12-18T01:18:41.432Z,37.75
2022-12-18T01:21:10.605Z,37.15
2022-12-18T01:23:37.735Z,36.72
2022-12-18T01:26:17.583Z,35.78
2022-12-18T01:28:44.991Z,34.95
2022-12-18T01:31:20.688Z,32.65
2022-12-18T01:33:52.080Z,34.83
2022-12-18T01:36:25.301Z,34.63
2022-12-18T01:38:52.782Z,31.40
2022-12-18T01:41:22.998Z,31.40
2022-12-18T01:43:57.814Z,30.73
2022-12-18T01:46:25.722Z,29.85
2022-12-18T01:48:56.657Z,30.30
2022-12-18T01:51:24.706Z,31.67
2022-12-18T01:53:51.627Z,29.90
2022-12-18T01:56:20.865Z,29.38
2022-12-18T01:59:01.618Z,27.92
2022-12-18T02:01:29.546Z,27.15
2022-12-18T02:03:56.373Z,27.13
2022-12-18T02:06:34.854Z,26.02
2022-12-18T02:09:23.438Z,25.33
2022-12-18T02:12:17.640Z,25.13
2022-12-18T02:14:59.999Z,23.80
2022-12-18T02:17:39.602Z,24.35
2022-12-18T02:20:26.829Z,23.83
2022-12-18T02:23:05.546Z,23.80
2022-12-18T02:25:48.591Z,22.05
2022-12-18T02:28:16.904Z,22.25
2022-12-18T02:30:45.238Z,21.27
2022-12-18T02:33:13.402Z,20.63
2022-12-18T02:35:41.973Z,20.55
2022-12-18T02:38:08.801Z,20.85
2022-12-18T02:40:36.151Z,20.33
2022-12-18T02:43:13.944Z,19.52
2022-12-18T02:45:58.598Z,19.25
2022-12-18T02:48:29.392Z,18.92
2022-12-18T02:51:01.078Z,19.27
2022-12-18T02:53:35.216Z,19.10
2022-12-18T02:56:11.984Z,19.38
2022-12-18T02:58:44.700Z,17.98
2022-12-18T03:01:16.698Z,18.17
2022-12-18T03:04:01.958Z,18.33
2022-12-18T03:06:36.438Z,17.30
2022-12-18T03:09:13.602Z,17.05
2022-12-18T03:14:35.360Z,17.38
2022-12-18T03:17:05.143Z,16.90
2022-12-18T03:19:33.903Z,16.35
2022-12-18T03:22:03.608Z,15.50
2022-12-18T03:27:01.563Z,15.10
2022-12-18T03:29:33.583Z,15.00
2022-12-18T03:32:07.049Z,14.07
2022-12-18T03:34:36.603Z,14.77
2022-12-18T03:37:04.109Z,15.15
2022-12-18T03:39:31.094Z,15.20
2022-12-18T03:42:00.626Z,14.05
2022-12-18T03:44:37.127Z,14.38
2022-12-18T03:47:34.857Z,13.98
2022-12-18T03:50:01.616Z,13.77
2022-12-18T03:52:34.778Z,13.13
2022-12-18T03:55:02.974Z,12.63
2022-12-18T03:57:31.964Z,12.90
2022-12-18T04:00:06.609Z,13.50
2022-12-18T04:02:34.847Z,12.45
2022-12-18T04:05:04.212Z,12.93
2022-12-18T04:07:31.473Z,12.45
2022-12-18T04:10:00.302Z,12.57
2022-12-18T04:12:29.052Z,12.93
2022-12-18T04:14:56.259Z,12.15
2022-12-18T04:17:23.733Z,12.63
2022-12-18T04:19:50.707Z,12.20
2022-12-18T04:22:17.510Z,12.10
2022-12-18T04:24:44.283Z,12.63
2022-12-18T04:27:11.062Z,10.73
2022-12-18T04:29:37.871Z,11.05
2022-12-18T04:32:04.907Z,10.80
2022-12-18T04:34:31.717Z,10.93
2022-12-18T04:36:58.482Z,10.48
2022-12-18T04:39:25.463Z,10.85
2022-12-18T04:41:52.873Z,10.45
2022-12-18T04:44:19.699Z,10.55
2022-12-18T04:46:46.631Z,10.25
2022-12-18T04:49:13.572Z,10.02
2022-12-18T04:51:40.585Z,9.35
2022-12-18T04:54:07.437Z,9.63
2022-12-18T04:56:34.277Z,9.88
2022-12-18T04:59:01.063Z,9.45
2022-12-18T05:01:34.026Z,9.02
2022-12-18T05:04:02.664Z,9.80
2022-12-18T05:06:29.556Z,9.82
2022-12-18T05:08:56.388Z,9.65
2022-12-18T05:11:23.190Z,9.68
2022-12-18T05:13:50.147Z,9.80
2022-12-18T05:16:17.210Z,9.30
2022-12-18T05:18:44.241Z,9.27
2022-12-18T05:21:11.136Z,8.77
2022-12-18T05:23:38.495Z,9.85
2022-12-18T05:26:07.585Z,8.68
2022-12-18T05:28:36.365Z,9.13
2022-12-18T05:31:04.270Z,9.02
2022-12-18T05:33:32.962Z,9.00
2022-12-18T05:36:05.018Z,8.70
2022-12-18T05:38:32.995Z,9.02
2022-12-18T05:41:00.043Z,8.90
2022-12-18T05:43:28.033Z,7.88
2022-12-18T05:45:55.548Z,8.27
2022-12-18T05:48:22.937Z,8.40
2022-12-18T05:50:51.018Z,8.45
2022-12-18T05:53:20.317Z,8.02
2022-12-18T05:55:48.020Z,7.40
2022-12-18T05:58:15.710Z,8.00
2022-12-18T06:00:45.070Z,7.55
2022-12-18T06:03:13.217Z,8.30
2022-12-18T06:05:42.770Z,7.50
2022-12-18T06:08:09.848Z,7.90
2022-12-18T06:10:37.323Z,7.70
2022-12-18T06:13:04.494Z,7.50
2022-12-18T06:15:31.530Z,7.25
2022-12-18T06:17:58.371Z,7.20
2022-12-18T06:20:29.075Z,6.85
2022-12-18T06:22:58.730Z,7.13
2022-12-18T06:25:25.547Z,7.10
2022-12-18T06:27:52.335Z,6.85
2022-12-18T06:30:19.202Z,6.38
2022-12-18T06:32:46.055Z,7.05
2022-12-18T06:35:15.556Z,6.47
2022-12-18T06:37:42.647Z,6.25
2022-12-18T06:40:10.019Z,6.82
2022-12-18T06:42:36.827Z,6.25
2022-12-18T06:45:03.886Z,6.07
2022-12-18T06:47:30.667Z,6.07
2022-12-18T06:49:57.433Z,6.70
2022-12-18T06:52:24.282Z,5.93
2022-12-18T06:54:51.133Z,6.10
2022-12-18T06:57:17.959Z,6.32
2022-12-18T06:59:44.701Z,5.93
2022-12-18T07:02:15.168Z,5.95
2022-12-18T07:04:42.026Z,5.88
2022-12-18T07:07:08.821Z,5.97
2022-12-18T07:09:35.720Z,5.95
2022-12-18T07:12:02.740Z,5.63
2022-12-18T07:14:29.538Z,5.30
2022-12-18T07:16:56.877Z,5.65
2022-12-18T07:19:23.774Z,5.50
2022-12-18T07:21:51.474Z,5.53
2022-12-18T07:24:18.383Z,5.30
2022-12-18T07:26:47.691Z,4.95
2022-12-18T07:29:14.635Z,5.50
2022-12-18T07:31:41.558Z,5.10
2022-12-18T07:34:12.686Z,5.35
2022-12-18T07:36:39.486Z,5.15
2022-12-18T07:39:06.331Z,5.30
2022-12-18T07:41:33.109Z,5.20
2022-12-18T07:44:00.007Z,4.97
2022-12-18T07:46:26.778Z,5.47
2022-12-18T07:48:53.575Z,5.50
2022-12-18T07:51:20.554Z,4.63
2022-12-18T07:53:51.304Z,5.05
2022-12-18T07:56:28.697Z,4.68
2022-12-18T07:58:57.311Z,4.97
2022-12-18T08:01:24.354Z,5.20
2022-12-18T08:03:52.405Z,4.88
2022-12-18T08:06:19.472Z,4.65
2022-12-18T08:08:49.521Z,5.10
2022-12-18T08:11:17.023Z,5.13
2022-12-18T08:13:43.898Z,5.45
2022-12-18T08:16:10.784Z,4.63
2022-12-18T08:18:39.095Z,5.15
2022-12-18T08:21:12.527Z,5.10
2022-12-18T08:23:42.919Z,4.93
2022-12-18T08:26:11.334Z,4.68
2022-12-18T08:28:38.486Z,4.55
2022-12-18T08:31:05.662Z,4.82
2022-12-18T08:33:33.286Z,5.25
2022-12-18T08:36:01.035Z,4.82
2022-12-18T08:38:27.914Z,4.55
2022-12-18T08:41:05.061Z,4.07
2022-12-18T08:43:50.387Z,4.82
2022-12-18T08:46:18.055Z,4.80
2022-12-18T08:48:45.165Z,5.00
2022-12-18T08:51:12.039Z,4.68
2022-12-18T08:53:39.516Z,4.30
2022-12-18T08:56:07.245Z,4.80
2022-12-18T08:58:34.100Z,4.63
2022-12-18T09:01:04.999Z,4.85
2022-12-18T09:03:32.302Z,4.70
2022-12-18T09:05:59.360Z,4.03
2022-12-18T09:08:26.896Z,4.13
2022-12-18T09:10:53.791Z,4.55
2022-12-18T09:13:20.779Z,4.20
2022-12-18T09:15:49.897Z,4.15
2022-12-18T09:18:18.678Z,4.80
2022-12-18T09:20:45.481Z,4.40
2022-12-18T09:23:12.774Z,4.25
2022-12-18T09:25:39.970Z,4.55
2022-12-18T09:28:11.767Z,4.38
2022-12-18T09:30:40.405Z,4.25
2022-12-18T09:33:07.223Z,4.22
2022-12-18T09:35:36.986Z,12.88
2022-12-18T09:38:03.890Z,50.70
2022-12-18T09:40:35.933Z,46.72
2022-12-18T09:45:42.050Z,44.13
2022-12-18T09:48:20.799Z,38.83
2022-12-18T09:50:48.069Z,34.08
2022-12-18T09:53:20.782Z,31.27
2022-12-18T09:55:49.107Z,29.73
2022-12-18T09:58:25.531Z,26.05
2022-12-18T10:00:55.962Z,25.27
2022-12-18T10:03:23.103Z,23.95
2022-12-18T10:06:30.933Z,43.83
2022-12-18T10:09:18.257Z,48.70
2022-12-18T10:12:07.142Z,49.58
2022-12-18T10:14:55.191Z,49.45
2022-12-18T10:17:47.482Z,46.78
2022-12-18T10:20:20.288Z,43.13
2022-12-18T10:23:27.771Z,40.95
2022-12-18T10:26:10.854Z,36.67
2022-12-18T10:28:40.243Z,33.20
2022-12-18T10:31:08.767Z,33.17
2022-12-18T10:33:35.884Z,30.55
2022-12-18T10:36:03.856Z,28.77
2022-12-18T10:38:32.849Z,27.95
2022-12-18T10:41:19.607Z,25.33
2022-12-18T10:43:49.031Z,23.80
2022-12-18T10:46:18.481Z,24.38
2022-12-18T10:48:48.449Z,23.05
2022-12-18T10:51:31.430Z,22.20
2022-12-18T10:54:06.468Z,20.85
2022-12-18T10:56:36.017Z,21.08
2022-12-18T10:59:05.865Z,38.53
2022-12-18T11:01:50.334Z,52.95
2022-12-18T11:04:28.678Z,55.20
2022-12-18T11:06:57.231Z,51.88
2022-12-18T11:09:29.100Z,48.83
2022-12-18T11:11:57.824Z,46.22
2022-12-18T11:14:47.407Z,41.00
2022-12-18T11:19:57.880Z,38.78
2022-12-18T11:22:30.699Z,36.25
2022-12-18T11:25:34.712Z,31.98
2022-12-18T11:28:05.495Z,32.17
2022-12-18T11:30:35.477Z,30.20
2022-12-18T11:35:46.526Z,29.30
2022-12-18T11:38:32.051Z,34.97
2022-12-18T11:41:12.000Z,41.90
2022-12-18T11:43:59.088Z,43.08
2022-12-18T11:46:39.211Z,38.40
2022-12-18T11:49:15.535Z,38.63
2022-12-18T11:52:00.028Z,37.50
2022-12-18T11:54:26.907Z,52.22
2022-12-18T11:57:08.826Z,51.92
2022-12-18T11:59:49.022Z,49.90
2022-12-18T12:02:54.648Z,47.58
2022-12-18T12:06:02.789Z,46.15
2022-12-18T12:08:48.054Z,44.95
2022-12-18T12:11:14.787Z,45.05
2022-12-18T12:14:09.163Z,49.88
2022-12-18T12:17:08.308Z,44.72
2022-12-18T12:19:35.064Z,46.05
2022-12-18T12:22:33.511Z,42.90
2022-12-18T12:25:11.881Z,43.60
2022-12-18T12:27:48.765Z,42.50
2022-12-18T12:30:23.001Z,43.72
2022-12-18T12:33:14.751Z,44.90
2022-12-18T12:36:16.849Z,38.80
2022-12-18T12:38:52.433Z,35.70
2022-12-18T12:41:42.758Z,37.03
2022-12-18T12:44:16.053Z,33.30
2022-12-18T12:46:43.422Z,35.35
2022-12-18T12:49:21.864Z,30.90
2022-12-18T12:52:17.497Z,31.45
2022-12-18T12:54:45.777Z,31.13
2022-12-18T13:00:17.521Z,29.48
2022-12-18T13:02:59.292Z,27.58
2022-12-18T13:05:52.865Z,31.13
2022-12-18T13:08:31.220Z,27.55
2022-12-18T13:11:39.379Z,26.75
2022-12-18T13:14:23.735Z,30.45
2022-12-18T13:16:51.876Z,22.75
2022-12-18T13:19:26.570Z,29.42
2022-12-18T13:21:56.136Z,26.25
2022-12-18T13:24:29.148Z,21.73
2022-12-18T13:26:56.273Z,24.98
2022-12-18T13:29:42.977Z,20.45
2022-12-18T13:32:24.748Z,21.55
2022-12-18T13:35:34.803Z,22.33
2022-12-18T13:38:02.162Z,22.60
2022-12-18T13:40:41.924Z,19.85
2022-12-18T13:43:21.100Z,24.58
2022-12-18T13:46:06.012Z,21.73
2022-12-18T13:48:37.065Z,18.33
2022-12-18T13:51:09.441Z,20.42
2022-12-18T13:53:43.816Z,20.73
2022-12-18T13:56:10.999Z,18.35
2022-12-18T13:58:38.046Z,18.58
2022-12-18T14:01:05.755Z,20.23
2022-12-18T14:03:32.840Z,17.92
2022-12-18T14:06:05.743Z,22.60
2022-12-18T14:08:51.334Z,17.38
2022-12-18T14:11:23.724Z,18.58
2022-12-18T14:13:53.518Z,20.55
2022-12-18T14:16:20.801Z,18.15
2022-12-18T14:21:27.251Z,17.23
2022-12-18T14:24:19.365Z,17.08
2022-12-18T14:26:47.712Z,16.48
2022-12-18T14:32:18.884Z,19.15
2022-12-18T14:34:50.760Z,21.17
2022-12-18T14:37:21.447Z,75.45
2022-12-18T14:40:10.460Z,86.22
2022-12-18T14:42:38.598Z,70.60
2022-12-18T14:45:43.048Z,61.40
2022-12-18T14:48:22.833Z,57.58
2022-12-18T14:51:04.615Z,52.67
2022-12-18T14:56:37.928Z,47.72
2022-12-18T14:59:24.695Z,50.83
2022-12-18T15:02:21.377Z,48.88
2022-12-18T15:04:48.362Z,41.63
2022-12-18T15:07:21.031Z,35.90
2022-12-18T15:10:17.051Z,44.33
2022-12-18T15:13:16.834Z,36.80
2022-12-18T15:15:46.672Z,31.20
2022-12-18T15:18:17.795Z,30.17
2022-12-18T15:20:49.613Z,32.28
2022-12-18T15:23:39.803Z,28.20
2022-12-18T15:28:40.615Z,25.02
2022-12-18T15:31:11.949Z,27.77
2022-12-18T15:33:41.394Z,24.55
2022-12-18T15:36:13.814Z,21.05
2022-12-18T15:38:40.640Z,21.83
2022-12-18T15:41:29.074Z,25.05
2022-12-18T15:43:55.878Z,22.35
2022-12-18T15:46:24.310Z,24.80
2022-12-18T15:48:57.974Z,21.17
2022-12-18T15:51:34.545Z,21.10
2022-12-18T15:54:04.808Z,48.05
2022-12-18T15:56:50.271Z,55.50
2022-12-18T15:59:19.350Z,51.50
2022-12-18T16:01:51.082Z,46.92
2022-12-18T16:04:21.574Z,44.17
2022-12-18T16:07:13.843Z,42.65
2022-12-18T16:09:36.553Z,42.40
2022-12-18T16:12:03.790Z,38.03
2022-12-18T16:14:31.231Z,34.20
2022-12-18T16:17:03.199Z,32.65
2022-12-18T16:19:30.675Z,32.33
2022-12-18T16:21:59.564Z,31.67
2022-12-18T16:24:32.199Z,31.75
2022-12-18T16:27:00.527Z,28.85
2022-12-18T16:29:28.897Z,27.98
2022-12-18T16:32:00.463Z,27.42
2022-12-18T16:34:33.806Z,26.63
2022-12-18T16:37:05.995Z,25.25
2022-12-18T16:39:35.090Z,24.90
2022-12-18T16:42:17.519Z,22.97
2022-12-18T16:44:45.199Z,20.65
2022-12-18T16:47:15.173Z,21.48
2022-12-18T16:49:42.752Z,19.05
2022-12-18T16:52:09.635Z,19.23
2022-12-18T16:54:36.872Z,18.60
2022-12-18T16:57:05.365Z,19.67
2022-12-18T16:59:32.719Z,20.08
2022-12-18T17:01:59.667Z,17.27
2022-12-18T17:04:26.630Z,18.23
2022-12-18T17:06:53.858Z,17.30
2022-12-18T17:09:27.612Z,17.20
2022-12-18T17:11:54.541Z,17.02
2022-12-18T17:14:23.425Z,16.17
2022-12-18T17:17:07.426Z,16.90
2022-12-18T17:19:37.258Z,15.95
2022-12-18T17:22:04.836Z,16.35
2022-12-18T17:24:35.142Z,14.80
2022-12-18T17:27:03.478Z,14.63
2022-12-18T17:29:30.326Z,14.82
2022-12-18T17:31:57.266Z,13.70
2022-12-18T17:34:25.521Z,13.95
2022-12-18T17:36:52.325Z,13.18
2022-12-18T17:39:20.164Z,16.00
2022-12-18T17:44:16.636Z,13.60
2022-12-18T17:46:43.885Z,12.52
2022-12-18T17:49:11.572Z,12.15
2022-12-18T17:51:38.754Z,13.77
2022-12-18T17:54:05.782Z,11.90
2022-12-18T17:56:32.945Z,11.63
2022-12-18T17:59:00.153Z,11.32
2022-12-18T18:01:27.451Z,11.10
2022-12-18T18:06:27.364Z,11.05
2022-12-18T18:08:54.731Z,11.13
2022-12-18T18:11:41.976Z,11.02
2022-12-18T18:14:15.099Z,13.00
2022-12-18T18:16:44.811Z,10.68
2022-12-18T18:21:42.249Z,10.03
2022-12-18T18:24:11.089Z,9.93
2022-12-18T18:26:38.094Z,12.45
2022-12-18T18:29:07.264Z,27.92
2022-12-18T18:31:40.884Z,32.92
2022-12-18T18:34:08.432Z,33.65
2022-12-18T18:36:35.335Z,31.00
2022-12-18T18:39:02.384Z,28.48
2022-12-18T18:41:30.491Z,27.48
2022-12-18T18:43:58.743Z,22.42
2022-12-18T18:46:26.307Z,20.70
2022-12-18T18:48:53.213Z,20.33
2022-12-18T18:51:21.201Z,19.40
2022-12-18T18:53:50.565Z,19.67
2022-12-18T18:57:03.970Z,17.10
2022-12-18T18:59:09.478Z,16.88
2022-12-18T19:01:36.438Z,16.33
2022-12-18T19:04:03.526Z,15.95
2022-12-18T19:06:30.491Z,15.40
2022-12-18T19:08:58.524Z,14.55
2022-12-18T19:11:45.014Z,13.90
2022-12-18T19:14:14.241Z,13.18
2022-12-18T19:16:41.924Z,13.27
2022-12-18T19:19:09.204Z,12.10
2022-12-18T19:21:38.115Z,12.85
2022-12-18T19:24:05.538Z,12.53
2022-12-18T19:26:32.483Z,12.30
2022-12-18T19:29:06.663Z,11.38
2022-12-18T19:31:36.364Z,11.32
2022-12-18T19:34:07.360Z,11.68
2022-12-18T19:36:35.952Z,11.88
2022-12-18T19:39:08.940Z,29.40
2022-12-18T19:41:35.770Z,44.75
2022-12-18T19:44:07.755Z,90.60
2022-12-18T19:46:35.306Z,82.38
2022-12-18T19:49:02.357Z,77.97
2022-12-18T19:51:30.308Z,70.53
2022-12-18T19:53:59.902Z,62.33
2022-12-18T19:56:30.344Z,58.15
2022-12-18T19:58:57.530Z,48.83
2022-12-18T20:01:25.982Z,45.05
2022-12-18T20:03:55.886Z,41.47
2022-12-18T20:06:47.527Z,39.80
2022-12-18T20:09:14.463Z,34.45
2022-12-18T20:11:42.353Z,30.88
2022-12-18T20:14:13.520Z,28.90
2022-12-18T20:16:40.595Z,28.30
2022-12-18T20:19:07.781Z,29.25
2022-12-18T20:21:34.652Z,74.00
2022-12-18T20:24:02.128Z,80.95
2022-12-18T20:26:29.120Z,88.47
2022-12-18T20:28:56.151Z,81.78
2022-12-18T20:31:23.988Z,68.50
2022-12-18T20:33:52.144Z,63.55
2022-12-18T20:36:23.604Z,56.95
2022-12-18T20:38:58.114Z,54.20
2022-12-18T20:41:36.081Z,48.67
2022-12-18T20:44:23.635Z,43.67
2022-12-18T20:46:55.384Z,39.53
2022-12-18T20:49:23.261Z,37.42
2022-12-18T20:51:52.290Z,34.97
2022-12-18T20:54:19.278Z,32.78
2022-12-18T20:56:46.339Z,34.55
2022-12-18T20:59:13.150Z,30.35
2022-12-18T21:01:42.613Z,29.30
2022-12-18T21:04:15.736Z,28.35
2022-12-18T21:06:49.398Z,26.27
2022-12-18T21:09:18.488Z,25.23
2022-12-18T21:12:03.779Z,25.08
2022-12-18T21:14:33.670Z,24.42
2022-12-18T21:17:01.959Z,22.65
2022-12-18T21:19:29.282Z,22.23
2022-12-18T21:21:57.086Z,21.40
2022-12-18T21:24:24.961Z,22.10
2022-12-18T21:26:52.244Z,20.40
2022-12-18T21:29:24.276Z,19.55
2022-12-18T21:31:52.278Z,19.52
2022-12-18T21:34:27.969Z,18.83
2022-12-18T21:36:56.107Z,18.67
2022-12-18T21:39:23.122Z,20.13
2022-12-18T21:42:09.076Z,20.60
2022-12-18T21:44:41.625Z,20.13
2022-12-18T21:47:21.776Z,20.88
2022-12-18T21:49:51.170Z,20.08
2022-12-18T21:52:18.121Z,19.00
2022-12-18T21:54:44.935Z,18.08
2022-12-18T21:57:13.377Z,19.52
2022-12-18T21:59:41.516Z,19.10
2022-12-18T22:02:12.642Z,17.80
2022-12-18T22:04:39.824Z,16.92
2022-12-18T22:07:07.128Z,17.00
2022-12-18T22:09:34.204Z,15.50
2022-12-18T22:12:01.102Z,15.07
2022-12-18T22:14:28.139Z,15.65
2022-12-18T22:16:57.298Z,14.93
2022-12-18T22:19:27.365Z,14.80
2022-12-18T22:21:54.839Z,14.07
2022-12-18T22:24:25.787Z,13.82
2022-12-18T22:26:56.711Z,17.42
2022-12-18T22:29:47.657Z,29.30
2022-12-18T22:32:25.586Z,57.60
2022-12-18T22:35:07.253Z,69.03
2022-12-18T22:37:35.064Z,64.35
2022-12-18T22:40:03.218Z,60.15
2022-12-18T22:42:31.007Z,52.13
2022-12-18T22:44:57.856Z,48.88
2022-12-18T22:47:29.446Z,45.90
2022-12-18T22:49:57.334Z,44.15
2022-12-18T22:52:24.878Z,38.08
2022-12-18T22:54:53.433Z,37.10
2022-12-18T22:57:24.018Z,34.75
2022-12-18T22:59:51.393Z,32.42
2022-12-18T23:02:19.146Z,29.05
2022-12-18T23:04:47.409Z,27.23
2022-12-18T23:07:14.734Z,26.17
2022-12-18T23:09:41.528Z,34.92
2022-12-18T23:12:14.862Z,54.33
2022-12-18T23:14:42.104Z,66.93
2022-12-18T23:17:08.964Z,68.90
2022-12-18T23:19:35.757Z,65.05
2022-12-18T23:22:06.059Z,60.70
2022-12-18T23:24:35.490Z,56.50
2022-12-18T23:27:02.304Z,49.50
2022-12-18T23:29:32.478Z,45.17
2022-12-18T23:31:59.351Z,42.90
2022-12-18T23:34:26.168Z,41.28
2022-12-18T23:36:55.982Z,38.67
2022-12-18T23:39:29.719Z,37.17
2022-12-18T23:41:59.924Z,34.75
2022-12-18T23:44:26.864Z,33.60
2022-12-18T23:46:54.355Z,31.88
2022-12-18T23:49:21.344Z,31.63
2022-12-18T23:51:48.233Z,28.63
2022-12-18T23:54:15.093Z,28.27
2022-12-18T23:56:42.119Z,27.33
2022-12-18T23:59:09.151Z,27.05
